Etusivu
METAR-TAF:

METAR-TAF

Lentoasemat :

Mécheria, Algeria

Leveyspiiri: 34-56N, Pituuspiiri: 000-26W, korkeus merenpinnasta: 1149 m

Tämänhetkinen sää

Tämä raportti tehtiin 25 minuuttia sitten, kello 05.00 UTC
Tuuli 8 kn pohjoisesta
Lämpötila 13°C
Kosteus 62%
Ilmanpaine 1020 hPa
Näkyvyys: 8000 m
Hajanaisia pilviä 3300 ft:n korkeudessa

METAR: DAAY 190500Z 01008KT 8000 SCT033 13/06 Q1020

Aika: 06:25 (05:25 UTC)

Sääennuste

Tämä raportti tehtiin 3 tuntia ja 25 minuuttia sitten, kello 02.00 UTC
Ennuste voimassa 19. päivästä klo 03 UTC - 19. päivään klo 12 UTC
Tuuli 14 kn koillisesta
Näkyvyys: 7000 m

TAF: DAAY 190200Z 1903/1912 04014KT 7000 NSC

Säähavainnot ja -ennusteet yli 4000 lentoasemalta (METAR- ja TAF-raportit).

Käytössä olevat sääasemat on merkitty karttaan keltaisilla ja punaisilla pisteillä.

Aseta hiiri pisteen päälle nähdäksesi sääaseman nimen.

Klikkaa sitten nähdäksesi säähavainnot ja -ennusteet.

Kartan vaihtaminen: klikkaa mustalla rastilla varustettuja vihreitä pisteitä, niin voit zoomata sisään; viivalla varustettua vihreää pistettä, niin voit zoomata ulos tai vihreitä nuolia, niin pääset viereisille kartoille.


METAR-TAF: